Newark, NJ (07101)

7:02 PM EST on February 24, 2017 (GMT -0500)
Central Business District | | Change Station

Elev 62 ft 40.74 °N, 74.17 °W | Updated 1 minute ago

Partly Cloudy
Partly Cloudy
63.3 °F
Feels Like 63.3 °F
N
1.2
Wind Variable Wind from SSE
Gusts 2.5 mph

Today
High -- | Low -- °F
--% Chance of Precip.
Yesterday
High -- | Low -- °F
Precip. -- in
Pressure 29.85 in
Visibility 10.0 miles
Clouds Few 4000 ft
Few 10000 ft
Scattered Clouds 25000 ft
Dew Point 54 °F
Humidity 72%
Rainfall 0.00 in
Snow Depth Not available.
6:37 AM 5:42 PM
Waning Crescent, 3% visible
METAR KEWR 242351Z 16006KT 10SM FEW040 FEW100 SCT250 18/12 A2985 RMK AO2 SLP106 T01830117 10228 20183 55000 $
Pressure 29.85 in
Visibility 10.0 miles
Clouds Few 4000 ft
Few 10000 ft
Scattered Clouds 25000 ft
Dew Point 54 °F
Humidity 72%
Rainfall 0.00 in
Snow Depth Not available.
6:37 AM 5:42 PM
Waning Crescent, 3% visible
METAR KEWR 242351Z 16006KT 10SM FEW040 FEW100 SCT250 18/12 A2985 RMK AO2 SLP106 T01830117 10228 20183 55000 $

Get Your Daily Forecast Email!

Thanks for signing up!

Be on the lookout for a verification email in your inbox.

You'll start receiving the daily forecast at 8 AM.

×

10-Day Weather Forecast

Almanac

Astronomy

Feb. 24, 2017 Rise Set
Actual Time
Civil Twilight
Nautical Twilight
Astronomical Twilight
Moon
Length of Visible Light
Length of Day
Tomorrow will be .
, % of the Moon is Illuminated

Today's Extremes

State Highs State Lows

Community

WunderPhotos

Upload Photos

1,962,540 photos uploaded!

WunderBlog® & News

Nearby

Air Quality

  Air Quality AQ Index Pollutant
Not available.

Snow Depth

Station Depth Elevation

Earthquake Activity

City Distance Mag. Time & Date
Minimum magnitude displayed is 2.5.

Coastal Water Temperatures

Place Temperature

Stations

Nearby Weather Stations

Station Location Temp. Windchill Dew Point Humidity Wind Precip. Elev Updated Type
                   

Watches & Warnings

There are currently no watches in effect.